createdAt,value
2018-10-21T00:01:50.112Z,23.13
2018-10-21T00:04:25.884Z,24.17
2018-10-21T00:07:01.477Z,23.97
2018-10-21T00:09:31.588Z,23.63
2018-10-21T00:12:01.781Z,22.73
2018-10-21T00:14:31.885Z,23.57
2018-10-21T00:17:01.988Z,24.10
2018-10-21T00:19:32.090Z,23.50
2018-10-21T00:22:02.189Z,22.67
2018-10-21T00:24:32.280Z,21.87
2018-10-21T00:27:02.445Z,22.53
2018-10-21T00:29:32.512Z,21.83
2018-10-21T00:32:02.769Z,21.20
2018-10-21T00:34:32.869Z,21.53
2018-10-21T00:37:02.963Z,20.30
2018-10-21T00:39:33.044Z,22.33
2018-10-21T00:42:03.149Z,19.87
2018-10-21T00:44:33.256Z,21.77
2018-10-21T00:47:03.512Z,20.50
2018-10-21T00:49:33.709Z,20.70
2018-10-21T00:52:03.823Z,20.43
2018-10-21T00:54:33.912Z,21.13
2018-10-21T00:57:04.045Z,21.33
2018-10-21T00:59:34.121Z,20.63
2018-10-21T01:02:04.244Z,21.90
2018-10-21T01:04:34.382Z,20.30
2018-10-21T01:07:04.540Z,21.90
2018-10-21T01:09:34.605Z,28.03
2018-10-21T01:12:05.045Z,21.00
2018-10-21T01:14:35.128Z,20.93
2018-10-21T01:17:05.356Z,18.40
2018-10-21T01:19:35.448Z,20.17
2018-10-21T01:22:05.781Z,18.97
2018-10-21T01:24:35.890Z,20.40
2018-10-21T01:27:06.729Z,19.30
2018-10-21T01:29:36.728Z,18.93
2018-10-21T01:32:06.973Z,20.10
2018-10-21T01:34:37.064Z,19.43
2018-10-21T01:37:07.377Z,19.20
2018-10-21T01:41:00.150Z,20.07
2018-10-21T01:43:31.582Z,19.37
2018-10-21T01:46:02.415Z,19.20
2018-10-21T01:48:33.141Z,19.43
2018-10-21T01:51:03.301Z,18.50
2018-10-21T01:53:33.385Z,17.60
2018-10-21T01:56:03.484Z,17.63
2018-10-21T01:58:33.576Z,17.77
2018-10-21T02:01:03.672Z,17.97
2018-10-21T02:03:33.816Z,17.67
2018-10-21T02:06:03.964Z,17.40
2018-10-21T02:08:34.096Z,18.93
2018-10-21T02:11:04.212Z,18.83
2018-10-21T02:13:34.315Z,18.10
2018-10-21T02:16:04.429Z,18.37
2018-10-21T02:18:34.615Z,19.07
2018-10-21T02:21:04.791Z,19.60
2018-10-21T02:23:34.796Z,18.07
2018-10-21T02:26:04.924Z,18.87
2018-10-21T02:28:35.008Z,16.87
2018-10-21T02:31:05.258Z,18.37
2018-10-21T02:33:35.469Z,20.10
2018-10-21T02:36:05.469Z,18.90
2018-10-21T02:38:35.556Z,19.53
2018-10-21T02:41:55.679Z,18.43
2018-10-21T02:44:26.052Z,18.80
2018-10-21T02:46:57.217Z,18.40
2018-10-21T02:49:27.321Z,18.80
2018-10-21T02:52:02.854Z,17.43
2018-10-21T02:54:32.941Z,17.77
2018-10-21T02:57:04.050Z,18.67
2018-10-21T02:59:34.122Z,19.07
2018-10-21T03:02:04.287Z,18.70
2018-10-21T03:04:34.436Z,20.00
2018-10-21T03:07:04.586Z,19.20
2018-10-21T03:09:34.705Z,19.33
2018-10-21T03:12:04.964Z,19.60
2018-10-21T03:14:35.074Z,19.77
2018-10-21T03:17:05.289Z,19.00
2018-10-21T03:19:35.360Z,19.20
2018-10-21T03:22:05.484Z,20.57
2018-10-21T03:24:35.577Z,20.43
2018-10-21T03:27:05.881Z,19.70
2018-10-21T03:29:36.168Z,20.70
2018-10-21T03:32:06.673Z,20.00
2018-10-21T03:34:36.769Z,21.63
2018-10-21T03:37:06.898Z,20.47
2018-10-21T03:39:36.988Z,20.77
2018-10-21T03:42:07.109Z,23.20
2018-10-21T03:44:37.209Z,24.77
2018-10-21T03:47:07.305Z,25.03
2018-10-21T03:49:37.412Z,25.87
2018-10-21T03:52:07.566Z,25.47
2018-10-21T03:54:39.793Z,24.60
2018-10-21T03:57:09.899Z,26.53
2018-10-21T03:59:40.001Z,26.07
2018-10-21T04:02:10.080Z,24.63
2018-10-21T04:04:40.196Z,25.20
2018-10-21T04:07:10.561Z,24.13
2018-10-21T04:09:40.648Z,26.13
2018-10-21T04:12:10.780Z,26.20
2018-10-21T04:14:40.862Z,27.33
2018-10-21T04:17:11.309Z,28.27
2018-10-21T04:19:41.412Z,25.50
2018-10-21T04:22:11.673Z,25.90
2018-10-21T04:24:41.721Z,25.97
2018-10-21T04:27:11.817Z,26.13
2018-10-21T04:29:41.915Z,26.13
2018-10-21T04:32:12.038Z,31.27
2018-10-21T04:34:42.132Z,24.13
2018-10-21T04:37:29.274Z,24.50
2018-10-21T04:40:19.096Z,24.73
2018-10-21T04:42:49.984Z,24.93
2018-10-21T04:45:21.561Z,24.87
2018-10-21T04:47:51.705Z,24.63
2018-10-21T04:50:21.840Z,24.47
2018-10-21T04:52:51.940Z,25.10
2018-10-21T04:55:22.046Z,23.60
2018-10-21T04:57:52.169Z,23.47
2018-10-21T05:00:22.345Z,24.00
2018-10-21T05:02:52.428Z,21.97
2018-10-21T05:05:22.549Z,23.80
2018-10-21T05:07:52.637Z,22.20
2018-10-21T05:10:31.344Z,23.63
2018-10-21T05:13:01.729Z,23.63
2018-10-21T05:15:33.156Z,22.60
2018-10-21T05:18:03.352Z,23.70
2018-10-21T05:20:33.445Z,23.40
2018-10-21T05:23:03.556Z,23.50
2018-10-21T05:25:33.733Z,24.87
2018-10-21T05:28:03.919Z,25.50
2018-10-21T05:30:33.980Z,25.07
2018-10-21T05:33:04.448Z,23.80
2018-10-21T05:35:34.537Z,23.80
2018-10-21T05:38:04.733Z,24.23
2018-10-21T05:40:34.864Z,23.97
2018-10-21T05:43:05.045Z,26.90
2018-10-21T05:45:35.140Z,23.57
2018-10-21T05:48:05.478Z,25.33
2018-10-21T05:50:35.571Z,24.63
2018-10-21T05:53:05.817Z,23.77
2018-10-21T05:55:36.228Z,24.67
2018-10-21T05:58:06.773Z,23.90
2018-10-21T06:00:36.864Z,23.27
2018-10-21T06:03:07.022Z,21.47
2018-10-21T06:05:38.756Z,22.50
2018-10-21T06:08:09.012Z,21.60
2018-10-21T06:10:39.145Z,21.17
2018-10-21T06:13:09.306Z,20.27
2018-10-21T06:15:39.521Z,21.67
2018-10-21T06:18:14.349Z,22.57
2018-10-21T06:20:48.662Z,22.93
2018-10-21T06:23:18.734Z,22.63
2018-10-21T06:25:48.825Z,22.53
2018-10-21T06:28:18.901Z,22.57
2018-10-21T06:30:49.242Z,24.30
2018-10-21T06:33:19.409Z,25.47
2018-10-21T06:35:49.806Z,25.00
2018-10-21T06:38:19.941Z,24.33
2018-10-21T06:40:50.039Z,24.73
2018-10-21T06:43:20.117Z,24.63
2018-10-21T06:45:50.492Z,24.73
2018-10-21T06:48:20.596Z,23.53
2018-10-21T06:50:50.697Z,21.47
2018-10-21T06:53:20.833Z,21.37
2018-10-21T06:55:50.958Z,20.97
2018-10-21T06:58:21.171Z,20.23
2018-10-21T07:00:51.272Z,20.40
2018-10-21T07:03:21.348Z,20.37
2018-10-21T07:06:28.166Z,19.23
2018-10-21T07:08:59.752Z,17.80
2018-10-21T07:11:29.950Z,18.03
2018-10-21T07:14:00.029Z,16.73
2018-10-21T07:16:30.336Z,17.70
2018-10-21T07:19:00.312Z,18.03
2018-10-21T07:21:30.429Z,18.03
2018-10-21T07:24:00.544Z,17.07
2018-10-21T07:26:30.633Z,18.27
2018-10-21T07:29:00.764Z,18.00
2018-10-21T07:31:30.870Z,17.83
2018-10-21T07:34:01.002Z,17.97
2018-10-21T07:36:31.158Z,16.83
2018-10-21T07:39:01.222Z,16.33
2018-10-21T07:41:31.313Z,16.93
2018-10-21T07:44:01.477Z,19.40
2018-10-21T07:46:31.584Z,19.77
2018-10-21T07:49:01.709Z,16.97
2018-10-21T07:51:31.797Z,16.97
2018-10-21T07:54:02.177Z,17.20
2018-10-21T07:56:32.277Z,18.03
2018-10-21T07:59:02.401Z,17.70
2018-10-21T08:01:32.521Z,16.87
2018-10-21T08:04:02.655Z,15.97
2018-10-21T08:06:49.560Z,15.53
2018-10-21T08:09:19.656Z,16.07
2018-10-21T08:11:49.765Z,13.77
2018-10-21T08:14:19.849Z,14.20
2018-10-21T08:16:49.989Z,13.83
2018-10-21T08:19:20.096Z,12.50
2018-10-21T08:21:50.171Z,13.70
2018-10-21T08:24:20.650Z,13.53
2018-10-21T08:26:50.726Z,11.80
2018-10-21T08:29:20.815Z,11.10
2018-10-21T08:31:50.932Z,11.80
2018-10-21T08:34:21.081Z,11.30
2018-10-21T08:36:51.271Z,11.23
2018-10-21T08:39:21.384Z,10.50
2018-10-21T08:41:51.504Z,10.97
2018-10-21T08:44:21.596Z,11.27
2018-10-21T08:46:51.773Z,11.47
2018-10-21T08:49:21.952Z,11.27
2018-10-21T08:51:51.975Z,10.43
2018-10-21T08:54:22.317Z,10.13
2018-10-21T08:56:52.401Z,11.20
2018-10-21T08:59:22.622Z,10.17
2018-10-21T09:01:53.821Z,10.07
2018-10-21T09:04:23.940Z,10.83
2018-10-21T09:06:54.148Z,10.93
2018-10-21T09:09:32.724Z,9.90
2018-10-21T09:12:03.114Z,10.77
2018-10-21T09:14:33.333Z,9.67
2018-10-21T09:17:03.800Z,9.57
2018-10-21T09:19:33.929Z,8.17
2018-10-21T09:22:04.498Z,6.50
2018-10-21T09:24:34.533Z,6.30
2018-10-21T09:27:05.909Z,6.57
2018-10-21T09:29:36.764Z,6.43
2018-10-21T09:32:06.886Z,6.37
2018-10-21T09:34:36.976Z,6.03
2018-10-21T09:37:07.316Z,5.97
2018-10-21T09:39:42.772Z,7.63
2018-10-21T09:42:12.950Z,8.73
2018-10-21T09:44:42.992Z,8.17
2018-10-21T09:47:13.413Z,7.23
2018-10-21T09:49:43.529Z,3.20
2018-10-21T09:52:13.710Z,2.20
2018-10-21T09:54:43.812Z,1.40
2018-10-21T09:57:13.893Z,1.50
2018-10-21T09:59:43.981Z,1.10
2018-10-21T10:02:19.361Z,1.23
2018-10-21T10:04:49.449Z,1.30
2018-10-21T10:07:19.960Z,1.30
2018-10-21T10:09:50.000Z,1.13
2018-10-21T10:12:20.121Z,1.73
2018-10-21T10:14:50.224Z,0.93
2018-10-21T10:17:20.332Z,1.53
2018-10-21T10:19:50.400Z,1.23
2018-10-21T10:22:20.579Z,1.10
2018-10-21T10:24:50.706Z,1.10
2018-10-21T10:27:20.791Z,1.20
2018-10-21T10:29:50.886Z,1.23
2018-10-21T10:32:20.980Z,1.40
2018-10-21T10:34:51.061Z,1.20
2018-10-21T10:37:21.340Z,0.83
2018-10-21T10:39:51.437Z,0.80
2018-10-21T10:42:21.592Z,1.17
2018-10-21T10:44:51.589Z,1.00
2018-10-21T10:47:21.782Z,2.57
2018-10-21T10:49:51.905Z,1.80
2018-10-21T10:52:22.056Z,2.33
2018-10-21T10:54:52.145Z,1.97
2018-10-21T10:57:22.597Z,1.97
2018-10-21T10:59:52.884Z,2.07
2018-10-21T11:02:22.940Z,1.37
2018-10-21T11:04:53.025Z,5.03
2018-10-21T11:07:23.142Z,1.47
2018-10-21T11:09:53.220Z,1.20
2018-10-21T11:12:23.388Z,1.50
2018-10-21T11:14:53.561Z,1.30
2018-10-21T11:17:23.956Z,1.10
2018-10-21T11:19:54.105Z,1.40
2018-10-21T11:22:24.268Z,1.60
2018-10-21T11:24:54.396Z,1.30
2018-10-21T11:27:24.492Z,1.17
2018-10-21T11:29:54.585Z,1.30
2018-10-21T11:32:24.677Z,0.93
2018-10-21T11:34:55.637Z,0.90
2018-10-21T11:37:25.846Z,1.10
2018-10-21T11:39:55.904Z,1.20
2018-10-21T11:42:26.135Z,1.37
2018-10-21T11:44:56.220Z,1.40
2018-10-21T11:47:26.372Z,1.30
2018-10-21T11:49:56.496Z,1.20
2018-10-21T11:52:26.964Z,1.60
2018-10-21T11:54:57.097Z,1.30
2018-10-21T11:57:27.508Z,1.67
2018-10-21T11:59:57.621Z,0.90
2018-10-21T12:02:28.158Z,1.00
2018-10-21T12:04:58.237Z,0.73
2018-10-21T12:07:28.406Z,0.97
2018-10-21T12:09:58.581Z,1.33
2018-10-21T12:12:29.148Z,1.40
2018-10-21T12:14:59.337Z,1.30
2018-10-21T12:17:29.889Z,1.00
2018-10-21T12:20:00.284Z,1.00
2018-10-21T12:22:30.695Z,1.50
2018-10-21T12:25:00.736Z,1.50
2018-10-21T12:27:30.840Z,3.37
2018-10-21T12:30:00.961Z,8.50
2018-10-21T12:32:31.103Z,9.10
2018-10-21T12:35:01.589Z,3.40
2018-10-21T12:37:31.621Z,7.10
2018-10-21T12:40:01.778Z,10.30
2018-10-21T12:42:32.241Z,2.93
2018-10-21T12:45:02.524Z,1.70
2018-10-21T12:47:32.608Z,1.80
2018-10-21T12:50:02.808Z,2.37
2018-10-21T12:52:33.005Z,1.40
2018-10-21T12:55:03.178Z,1.20
2018-10-21T12:57:33.417Z,1.63
2018-10-21T13:00:03.525Z,1.03
2018-10-21T13:02:33.662Z,1.10
2018-10-21T13:05:03.909Z,1.30
2018-10-21T13:07:34.017Z,1.27
2018-10-21T13:10:04.225Z,1.40
2018-10-21T13:12:34.252Z,1.80
2018-10-21T13:15:04.465Z,1.30
2018-10-21T13:17:34.573Z,1.10
2018-10-21T13:20:05.012Z,1.10
2018-10-21T13:22:35.104Z,1.20
2018-10-21T13:25:05.696Z,1.10
2018-10-21T13:27:35.756Z,1.03
2018-10-21T13:30:06.924Z,1.30
2018-10-21T13:32:37.005Z,0.90
2018-10-21T13:35:07.884Z,0.97
2018-10-21T13:37:38.142Z,2.10
2018-10-21T13:40:08.907Z,2.33
2018-10-21T13:42:38.988Z,1.63
2018-10-21T13:45:09.348Z,1.07
2018-10-21T13:47:39.678Z,1.00
2018-10-21T13:50:10.089Z,1.30
2018-10-21T13:52:40.573Z,2.23
2018-10-21T13:55:10.842Z,1.40
2018-10-21T13:57:41.204Z,2.77
2018-10-21T14:00:11.434Z,2.70
2018-10-21T14:02:41.767Z,1.70
2018-10-21T14:05:11.868Z,2.50
2018-10-21T14:07:42.323Z,2.17
2018-10-21T14:10:12.508Z,2.80
2018-10-21T14:12:42.548Z,2.60
2018-10-21T14:15:12.715Z,1.40
2018-10-21T14:17:42.813Z,1.80
2018-10-21T14:20:13.197Z,1.80
2018-10-21T14:22:43.290Z,1.80
2018-10-21T14:25:13.734Z,1.60
2018-10-21T14:27:44.120Z,1.60
2018-10-21T14:30:14.819Z,1.50
2018-10-21T14:32:45.034Z,1.50
2018-10-21T14:35:16.568Z,1.70
2018-10-21T14:37:46.771Z,1.60
2018-10-21T14:40:17.052Z,1.70
2018-10-21T14:42:47.148Z,2.27
2018-10-21T14:45:17.368Z,9.10
2018-10-21T14:47:47.401Z,8.70
2018-10-21T14:50:17.538Z,2.43
2018-10-21T14:52:47.988Z,1.60
2018-10-21T14:55:18.105Z,2.03
2018-10-21T14:57:48.394Z,4.77
2018-10-21T15:00:18.815Z,2.83
2018-10-21T15:02:48.995Z,3.17
2018-10-21T15:05:19.064Z,5.33
2018-10-21T15:07:49.773Z,3.17
2018-10-21T15:10:19.870Z,2.63
2018-10-21T15:12:50.035Z,3.77
2018-10-21T15:15:20.169Z,2.07
2018-10-21T15:17:50.980Z,2.90
2018-10-21T15:20:21.198Z,3.63
2018-10-21T15:22:51.772Z,2.53
2018-10-21T15:25:21.913Z,2.10
2018-10-21T15:27:52.012Z,2.60
2018-10-21T15:30:22.319Z,3.10
2018-10-21T15:32:52.793Z,2.23
2018-10-21T15:35:22.880Z,2.23
2018-10-21T15:37:53.463Z,2.50
2018-10-21T15:40:23.616Z,3.30
2018-10-21T15:42:53.793Z,3.10
2018-10-21T15:45:23.897Z,3.23
2018-10-21T15:47:54.268Z,2.87
2018-10-21T15:50:24.409Z,3.20
2018-10-21T15:52:54.876Z,3.30
2018-10-21T15:55:24.972Z,4.20
2018-10-21T15:57:55.083Z,5.30
2018-10-21T16:00:25.448Z,4.70
2018-10-21T16:02:55.573Z,4.20
2018-10-21T16:05:25.680Z,40.17
2018-10-21T16:07:55.798Z,14.43
2018-10-21T16:10:25.969Z,57.20
2018-10-21T16:12:56.108Z,32.53
2018-10-21T16:15:26.637Z,21.27
2018-10-21T16:17:57.503Z,62.83
2018-10-21T16:20:27.960Z,26.43
2018-10-21T16:22:58.072Z,33.17
2018-10-21T16:25:28.278Z,13.40
2018-10-21T16:27:58.414Z,16.83
2018-10-21T16:30:28.585Z,11.07
2018-10-21T16:32:58.756Z,5.87
2018-10-21T16:35:29.057Z,5.33
2018-10-21T16:37:59.154Z,4.93
2018-10-21T16:40:29.781Z,4.93
2018-10-21T16:42:59.988Z,5.63
2018-10-21T16:45:30.252Z,7.53
2018-10-21T16:48:00.427Z,7.20
2018-10-21T16:50:30.698Z,16.00
2018-10-21T16:53:00.901Z,17.70
2018-10-21T16:55:30.922Z,13.43
2018-10-21T16:58:01.562Z,9.27
2018-10-21T17:00:31.745Z,6.93
2018-10-21T17:03:01.863Z,5.40
2018-10-21T17:05:32.044Z,5.53
2018-10-21T17:08:02.601Z,5.87
2018-10-21T17:10:33.561Z,5.57
2018-10-21T17:13:03.660Z,6.33
2018-10-21T17:15:34.044Z,13.53
2018-10-21T17:18:04.304Z,15.10
2018-10-21T17:20:35.211Z,9.03
2018-10-21T17:23:06.306Z,11.63
2018-10-21T17:25:36.768Z,12.20
2018-10-21T17:28:06.965Z,12.63
2018-10-21T17:30:37.141Z,14.17
2018-10-21T17:33:07.159Z,29.53
2018-10-21T17:35:38.061Z,50.10
2018-10-21T17:38:08.702Z,31.37
2018-10-21T17:40:39.502Z,44.07
2018-10-21T17:43:09.726Z,36.30
2018-10-21T17:45:39.891Z,22.60
2018-10-21T17:48:10.028Z,41.50
2018-10-21T17:50:40.244Z,26.07
2018-10-21T17:53:10.357Z,18.50
2018-10-21T17:55:40.464Z,12.40
2018-10-21T17:58:10.564Z,11.87
2018-10-21T18:00:40.723Z,12.30
2018-10-21T18:03:10.840Z,14.87
2018-10-21T18:05:41.116Z,11.03
2018-10-21T18:08:11.217Z,13.03
2018-10-21T18:10:41.853Z,12.37
2018-10-21T18:13:12.825Z,12.43
2018-10-21T18:15:42.985Z,46.77
2018-10-21T18:18:13.317Z,34.93
2018-10-21T18:20:43.482Z,23.27
2018-10-21T18:23:14.072Z,19.73
2018-10-21T18:25:44.376Z,19.90
2018-10-21T18:28:15.039Z,19.17
2018-10-21T18:30:45.150Z,19.17
2018-10-21T18:33:15.343Z,20.63
2018-10-21T18:35:45.449Z,15.40
2018-10-21T18:38:16.979Z,9.63
2018-10-21T18:40:47.313Z,9.30
2018-10-21T18:43:17.800Z,10.03
2018-10-21T18:45:48.452Z,15.03
2018-10-21T18:48:18.714Z,45.20
2018-10-21T18:50:48.767Z,64.77
2018-10-21T18:53:19.012Z,69.37
2018-10-21T18:55:49.121Z,25.50
2018-10-21T18:58:19.314Z,58.80
2018-10-21T19:00:49.932Z,15.47
2018-10-21T19:03:20.096Z,12.57
2018-10-21T19:05:51.641Z,12.90
2018-10-21T19:08:22.101Z,12.60
2018-10-21T19:10:52.857Z,12.30
2018-10-21T19:13:23.312Z,13.20
2018-10-21T19:15:53.918Z,10.43
2018-10-21T19:18:24.376Z,10.70
2018-10-21T19:20:54.780Z,11.23
2018-10-21T19:23:24.962Z,12.37
2018-10-21T19:25:55.493Z,12.47
2018-10-21T19:28:25.996Z,12.87
2018-10-21T19:30:56.075Z,11.93
2018-10-21T19:33:26.203Z,9.47
2018-10-21T19:35:56.661Z,9.33
2018-10-21T19:38:27.028Z,8.90
2018-10-21T19:40:57.415Z,9.73
2018-10-21T19:43:27.850Z,9.43
2018-10-21T19:45:58.047Z,10.33
2018-10-21T19:48:28.360Z,10.40
2018-10-21T19:50:58.560Z,11.13
2018-10-21T19:53:28.889Z,12.17
2018-10-21T19:55:59.088Z,40.17
2018-10-21T19:58:29.324Z,92.50
2018-10-21T20:00:59.455Z,40.43
2018-10-21T20:03:29.537Z,17.13
2018-10-21T20:05:59.635Z,10.90
2018-10-21T20:08:30.281Z,10.90
2018-10-21T20:11:00.373Z,9.97
2018-10-21T20:13:30.464Z,10.37
2018-10-21T20:16:00.586Z,10.37
2018-10-21T20:18:30.683Z,11.87
2018-10-21T20:21:00.968Z,10.80
2018-10-21T20:23:31.063Z,9.77
2018-10-21T20:26:01.189Z,10.53
2018-10-21T20:28:31.301Z,10.43
2018-10-21T20:31:01.538Z,10.07
2018-10-21T20:33:31.636Z,10.70
2018-10-21T20:36:01.713Z,11.73
2018-10-21T20:38:31.905Z,11.67
2018-10-21T20:41:02.024Z,11.80
2018-10-21T20:43:32.120Z,10.57
2018-10-21T20:46:02.296Z,9.77
2018-10-21T20:48:32.342Z,16.67
2018-10-21T20:51:02.507Z,22.33
2018-10-21T20:53:32.538Z,11.60
2018-10-21T20:56:02.626Z,31.23
2018-10-21T20:58:32.985Z,15.07
2018-10-21T21:01:03.779Z,9.57
2018-10-21T21:03:33.926Z,8.73
2018-10-21T21:06:04.297Z,8.07
2018-10-21T21:08:34.377Z,7.50
2018-10-21T21:11:04.497Z,7.07
2018-10-21T21:13:34.641Z,7.53
2018-10-21T21:16:05.243Z,8.73
2018-10-21T21:18:35.326Z,8.03
2018-10-21T21:21:05.472Z,7.53
2018-10-21T21:23:35.572Z,6.90
2018-10-21T21:26:05.785Z,6.90
2018-10-21T21:28:35.896Z,21.67
2018-10-21T21:31:06.413Z,73.60
2018-10-21T21:33:36.521Z,19.30
2018-10-21T21:36:06.724Z,9.67
2018-10-21T21:38:36.788Z,9.67
2018-10-21T21:41:07.069Z,10.50
2018-10-21T21:43:37.264Z,10.70
2018-10-21T21:46:07.360Z,9.73
2018-10-21T21:48:37.449Z,8.67
2018-10-21T21:51:07.550Z,12.17
2018-10-21T21:53:37.631Z,10.33
2018-10-21T21:56:07.741Z,8.60
2018-10-21T21:58:37.836Z,7.83
2018-10-21T22:01:08.119Z,7.27
2018-10-21T22:03:38.205Z,8.13
2018-10-21T22:06:08.406Z,11.80
2018-10-21T22:08:38.412Z,16.73
2018-10-21T22:11:08.552Z,16.47
2018-10-21T22:13:38.644Z,17.40
2018-10-21T22:16:08.871Z,16.13
2018-10-21T22:18:38.912Z,14.70
2018-10-21T22:21:09.012Z,13.27
2018-10-21T22:23:39.120Z,10.97
2018-10-21T22:26:09.239Z,9.50
2018-10-21T22:28:39.401Z,8.53
2018-10-21T22:31:09.533Z,8.47
2018-10-21T22:33:39.701Z,8.50
2018-10-21T22:36:09.876Z,7.13
2018-10-21T22:38:39.937Z,7.20
2018-10-21T22:41:10.068Z,6.90
2018-10-21T22:43:40.151Z,6.77
2018-10-21T22:46:10.326Z,6.80
2018-10-21T22:48:40.350Z,6.57
2018-10-21T22:51:10.459Z,6.17
2018-10-21T22:53:40.544Z,6.30
2018-10-21T22:56:10.641Z,5.90
2018-10-21T22:58:40.724Z,6.67
2018-10-21T23:01:17.432Z,6.93
2018-10-21T23:03:47.606Z,17.73
2018-10-21T23:06:17.765Z,13.70
2018-10-21T23:08:47.780Z,10.60
2018-10-21T23:11:17.868Z,9.87
2018-10-21T23:13:47.993Z,7.40
2018-10-21T23:16:18.183Z,11.40
2018-10-21T23:18:48.330Z,50.50
2018-10-21T23:21:18.333Z,10.57
2018-10-21T23:23:48.440Z,6.43
2018-10-21T23:26:18.532Z,6.07
2018-10-21T23:28:48.608Z,6.00
2018-10-21T23:31:18.856Z,5.77
2018-10-21T23:33:48.987Z,6.00
2018-10-21T23:36:19.174Z,5.93
2018-10-21T23:38:49.291Z,5.30
2018-10-21T23:41:25.900Z,5.53
2018-10-21T23:43:56.046Z,5.83
2018-10-21T23:46:26.522Z,6.33
2018-10-21T23:48:56.625Z,6.93
2018-10-21T23:51:26.724Z,6.70
2018-10-21T23:53:56.868Z,6.60
2018-10-21T23:56:27.025Z,6.93
2018-10-21T23:58:57.174Z,7.60
